F E Warren AFB, Wyoming
Current Conditions -  °F | °C
As of 7:53 PM on Monday 26 Jan 2015 (Local Time) from KCYS Reporting Station
Clear Clear  
Wind Chill:   Ceiling: Unl
Heat Index:   Visibility: 10mi
Dew Point: -6°   Wind: 13mph
Humidity: 43%   Direction: 270°W
Pressure: 30.23"   Gusts: NA
Location:  41.13°N, 104.82°W
Report Text: KCYS 270253Z 27011KT 10SM CLR 06/M06 A3023 RMK AO2 SLP205 T00611056 52004
Loading
Personal Weather Stations






























Interactive Weather Map New forecast layout! Learn more

10-Day Weather Forecast

Advertisements
Track Severe Weather on mobile